createdAt,value
2023-05-14T00:00:48.126Z,100518.09
2023-05-14T00:03:15.675Z,100514.63
2023-05-14T00:05:42.651Z,100511.91
2023-05-14T00:08:09.790Z,100516.22
2023-05-14T00:10:36.887Z,100515.00
2023-05-14T00:13:03.922Z,100511.69
2023-05-14T00:15:32.840Z,100517.25
2023-05-14T00:18:01.269Z,100517.00
2023-05-14T00:20:28.564Z,100518.97
2023-05-14T00:22:55.599Z,100515.41
2023-05-14T00:25:22.632Z,100521.94
2023-05-14T00:27:49.643Z,100514.19
2023-05-14T00:30:16.788Z,100522.22
2023-05-14T00:32:43.778Z,100516.59
2023-05-14T00:35:10.929Z,100522.13
2023-05-14T00:37:37.948Z,100529.34
2023-05-14T00:40:06.974Z,100527.16
2023-05-14T00:42:34.650Z,100527.44
2023-05-14T00:45:01.610Z,100525.25
2023-05-14T00:47:29.758Z,100529.16
2023-05-14T00:49:56.732Z,100528.09
2023-05-14T00:52:24.065Z,100531.94
2023-05-14T00:54:51.239Z,100525.66
2023-05-14T00:57:19.199Z,100530.91
2023-05-14T00:59:46.443Z,100539.22
2023-05-14T01:02:13.464Z,100535.34
2023-05-14T01:04:41.652Z,100539.91
2023-05-14T01:07:17.756Z,100537.56
2023-05-14T01:09:57.281Z,100549.31
2023-05-14T01:12:40.880Z,100537.91
2023-05-14T01:15:32.221Z,100539.28
2023-05-14T01:18:09.844Z,100541.50
2023-05-14T01:20:38.042Z,100541.94
2023-05-14T01:23:05.095Z,100538.09
2023-05-14T01:25:32.524Z,100544.59
2023-05-14T01:28:11.771Z,100534.38
2023-05-14T01:30:53.819Z,100546.81
2023-05-14T01:33:22.344Z,100545.13
2023-05-14T01:35:50.135Z,100544.75
2023-05-14T01:38:20.307Z,100543.19
2023-05-14T01:40:48.422Z,100555.66
2023-05-14T01:43:16.535Z,100553.97
2023-05-14T01:45:44.239Z,100562.00
2023-05-14T01:48:11.471Z,100560.59
2023-05-14T01:50:38.682Z,100565.13
2023-05-14T01:53:06.590Z,100544.28
2023-05-14T01:55:33.559Z,100566.41
2023-05-14T01:58:01.095Z,100568.03
2023-05-14T02:00:28.262Z,100566.41
2023-05-14T02:02:55.349Z,100569.03
2023-05-14T02:05:23.726Z,100573.56
2023-05-14T02:07:51.513Z,100569.16
2023-05-14T02:10:18.682Z,100571.66
2023-05-14T02:12:51.287Z,100569.03
2023-05-14T02:15:18.730Z,100568.03
2023-05-14T02:17:46.133Z,100574.41
2023-05-14T02:20:13.616Z,100576.09
2023-05-14T02:22:45.812Z,100575.25
2023-05-14T02:25:12.879Z,100577.88
2023-05-14T02:27:40.330Z,100574.16
2023-05-14T02:30:07.985Z,100584.38
2023-05-14T02:32:35.294Z,100585.72
2023-05-14T02:35:02.455Z,100596.22
2023-05-14T02:37:32.428Z,100573.19
2023-05-14T02:39:59.585Z,100595.53
2023-05-14T02:42:27.146Z,100595.41
2023-05-14T02:44:54.128Z,100600.38
2023-05-14T02:47:23.247Z,100587.53
2023-05-14T02:49:50.434Z,100605.91
2023-05-14T02:52:17.538Z,100597.19
2023-05-14T02:54:44.596Z,100600.50
2023-05-14T02:57:11.516Z,100614.06
2023-05-14T02:59:38.595Z,100596.22
2023-05-14T03:02:06.411Z,100608.25
2023-05-14T03:04:34.168Z,100608.78
2023-05-14T03:07:01.275Z,100608.63
2023-05-14T03:09:28.283Z,100610.31
2023-05-14T03:11:55.289Z,100612.63
2023-05-14T03:14:23.095Z,100612.06
2023-05-14T03:16:50.298Z,100612.78
2023-05-14T03:19:18.527Z,100611.22
2023-05-14T03:21:45.884Z,100608.69
2023-05-14T03:24:12.951Z,100611.03
2023-05-14T03:26:40.054Z,100608.00
2023-05-14T03:29:08.452Z,100612.91
2023-05-14T03:31:35.908Z,100614.53
2023-05-14T03:34:03.614Z,100614.91
2023-05-14T03:36:30.596Z,100623.38
2023-05-14T03:38:57.833Z,100625.34
2023-05-14T03:41:24.887Z,100619.50
2023-05-14T03:43:52.117Z,100624.25
2023-05-14T03:46:19.126Z,100618.59
2023-05-14T03:48:46.152Z,100626.19
2023-05-14T03:51:13.235Z,100627.72
2023-05-14T03:53:40.282Z,100613.81
2023-05-14T03:56:07.577Z,100635.47
2023-05-14T03:58:34.649Z,100633.38
2023-05-14T04:01:04.467Z,100627.28
2023-05-14T04:03:31.904Z,100628.13
2023-05-14T04:05:59.322Z,100634.75
2023-05-14T04:08:26.304Z,100635.00
2023-05-14T04:10:54.193Z,100637.19
2023-05-14T04:13:23.377Z,100632.75
2023-05-14T04:15:50.414Z,100630.78
2023-05-14T04:18:17.451Z,100637.53
2023-05-14T04:20:45.181Z,100638.16
2023-05-14T04:23:12.391Z,100632.19
2023-05-14T04:25:39.351Z,100639.34
2023-05-14T04:28:06.328Z,100635.22
2023-05-14T04:30:33.318Z,100628.03
2023-05-14T04:33:00.652Z,100635.38
2023-05-14T04:35:27.884Z,100632.25
2023-05-14T04:37:54.878Z,100643.66
2023-05-14T04:40:22.885Z,100639.53
2023-05-14T04:42:50.310Z,100635.09
2023-05-14T04:45:17.661Z,100640.53
2023-05-14T04:47:45.270Z,100639.81
2023-05-14T04:50:12.368Z,100634.19
2023-05-14T04:52:42.305Z,100636.88
2023-05-14T04:55:10.191Z,100639.78
2023-05-14T04:57:37.255Z,100639.56
2023-05-14T05:00:07.928Z,100631.84
2023-05-14T05:02:35.039Z,100636.25
2023-05-14T05:05:04.302Z,100640.50
2023-05-14T05:07:33.572Z,100635.19
2023-05-14T05:10:00.764Z,100634.59
2023-05-14T05:12:30.253Z,100643.13
2023-05-14T05:14:57.848Z,100633.94
2023-05-14T05:17:25.695Z,100644.09
2023-05-14T05:19:52.913Z,100647.53
2023-05-14T05:22:20.369Z,100637.28
2023-05-14T05:24:49.803Z,100634.34
2023-05-14T05:27:17.302Z,100636.50
2023-05-14T05:29:45.118Z,100637.38
2023-05-14T05:32:12.208Z,100648.91
2023-05-14T05:34:39.477Z,100641.22
2023-05-14T05:37:06.432Z,100637.97
2023-05-14T05:39:35.258Z,100640.41
2023-05-14T05:42:02.944Z,100632.75
2023-05-14T05:44:30.101Z,100633.16
2023-05-14T05:46:57.971Z,100628.31
2023-05-14T05:49:25.040Z,100629.59
2023-05-14T05:51:52.318Z,100619.75
2023-05-14T05:54:19.454Z,100615.97
2023-05-14T05:56:46.495Z,100615.63
2023-05-14T05:59:13.788Z,100609.22
2023-05-14T06:01:41.717Z,100606.81
2023-05-14T06:04:08.754Z,100605.59
2023-05-14T06:06:35.949Z,100598.28
2023-05-14T06:09:03.158Z,100603.38
2023-05-14T06:11:31.113Z,100605.63
2023-05-14T06:13:58.201Z,100606.19
2023-05-14T06:16:25.299Z,100608.63
2023-05-14T06:18:55.975Z,100620.44
2023-05-14T06:21:23.168Z,100619.16
2023-05-14T06:23:50.163Z,100602.81
2023-05-14T06:26:17.236Z,100611.00
2023-05-14T06:28:44.890Z,100603.22
2023-05-14T06:31:12.126Z,100608.16
2023-05-14T06:33:39.337Z,100601.63
2023-05-14T06:36:07.950Z,100609.13
2023-05-14T06:38:35.000Z,100603.91
2023-05-14T06:41:01.974Z,100600.34
2023-05-14T06:43:29.075Z,100597.19
2023-05-14T06:45:56.157Z,100598.03
2023-05-14T06:48:23.435Z,100609.28
2023-05-14T06:50:50.841Z,100602.72
2023-05-14T06:53:17.857Z,100610.25
2023-05-14T06:55:47.258Z,100600.56
2023-05-14T06:58:14.306Z,100607.16
2023-05-14T07:00:41.349Z,100612.84
2023-05-14T07:03:08.423Z,100614.13
2023-05-14T07:05:35.903Z,100617.72
2023-05-14T07:08:02.940Z,100626.34
2023-05-14T07:10:31.004Z,100620.59
2023-05-14T07:12:58.112Z,100620.97
2023-05-14T07:15:25.230Z,100616.53
2023-05-14T07:17:52.173Z,100630.81
2023-05-14T07:20:24.391Z,100618.75
2023-05-14T07:22:53.374Z,100630.81
2023-05-14T07:25:20.522Z,100631.59
2023-05-14T07:27:47.563Z,100628.22
2023-05-14T07:30:15.198Z,100641.47
2023-05-14T07:32:42.364Z,100631.28
2023-05-14T07:35:10.189Z,100639.53
2023-05-14T07:37:37.758Z,100643.34
2023-05-14T07:40:05.246Z,100640.13
2023-05-14T07:42:36.986Z,100644.75
2023-05-14T07:45:06.008Z,100640.34
2023-05-14T07:47:34.731Z,100643.22
2023-05-14T07:50:02.370Z,100646.41
2023-05-14T07:52:32.720Z,100641.56
2023-05-14T07:55:01.375Z,100646.06
2023-05-14T07:57:32.504Z,100638.47
2023-05-14T07:59:59.576Z,100644.19
2023-05-14T08:02:26.876Z,100649.38
2023-05-14T08:04:54.169Z,100641.16
2023-05-14T08:07:21.863Z,100653.47
2023-05-14T08:09:48.961Z,100649.63
2023-05-14T08:12:16.389Z,100656.50
2023-05-14T08:14:43.496Z,100650.59
2023-05-14T08:17:10.496Z,100656.19
2023-05-14T08:19:37.919Z,100652.94
2023-05-14T08:22:05.645Z,100653.56
2023-05-14T08:24:33.172Z,100653.25
2023-05-14T08:27:00.653Z,100645.72
2023-05-14T08:29:27.747Z,100651.34
2023-05-14T08:31:54.975Z,100657.13
2023-05-14T08:34:22.881Z,100650.59
2023-05-14T08:36:50.041Z,100652.25
2023-05-14T08:39:17.351Z,100647.03
2023-05-14T08:41:45.649Z,100647.22
2023-05-14T08:44:20.044Z,100647.13
2023-05-14T08:46:50.022Z,100647.81
2023-05-14T08:49:42.787Z,100648.84
2023-05-14T08:52:10.833Z,100641.31
2023-05-14T08:54:38.300Z,100644.22
2023-05-14T08:57:06.021Z,100642.38
2023-05-14T08:59:33.082Z,100641.47
2023-05-14T09:02:02.861Z,100642.16
2023-05-14T09:04:31.219Z,100631.91
2023-05-14T09:07:01.528Z,100646.00
2023-05-14T09:09:29.217Z,100645.72
2023-05-14T09:11:56.224Z,100636.66
2023-05-14T09:14:24.492Z,100639.94
2023-05-14T09:16:51.965Z,100643.56
2023-05-14T09:19:20.614Z,100645.81
2023-05-14T09:21:49.738Z,100642.41
2023-05-14T09:24:24.708Z,100635.81
2023-05-14T09:27:02.244Z,100637.47
2023-05-14T09:29:30.194Z,100639.13
2023-05-14T09:31:58.615Z,100644.28
2023-05-14T09:34:33.548Z,100639.09
2023-05-14T09:37:03.304Z,100641.38
2023-05-14T09:39:31.278Z,100636.91
2023-05-14T09:41:58.522Z,100632.56
2023-05-14T09:44:28.906Z,100641.63
2023-05-14T09:46:56.404Z,100621.06
2023-05-14T09:49:23.438Z,100632.97
2023-05-14T09:51:50.677Z,100628.88
2023-05-14T09:54:17.743Z,100633.72
2023-05-14T09:56:45.345Z,100633.59
2023-05-14T09:59:12.782Z,100629.28
2023-05-14T10:01:43.187Z,100631.53
2023-05-14T10:04:12.106Z,100643.66
2023-05-14T10:06:40.048Z,100639.31
2023-05-14T10:09:12.531Z,100633.44
2023-05-14T10:11:44.118Z,100627.72
2023-05-14T10:14:38.985Z,100628.03
2023-05-14T10:17:06.869Z,100626.28
2023-05-14T10:19:35.594Z,100615.72
2023-05-14T10:22:08.368Z,100625.56
2023-05-14T10:24:38.904Z,100628.63
2023-05-14T10:27:06.356Z,100622.31
2023-05-14T10:29:38.243Z,100639.91
2023-05-14T10:32:07.929Z,100629.63
2023-05-14T10:34:43.887Z,100631.97
2023-05-14T10:37:12.387Z,100628.53
2023-05-14T10:39:51.398Z,100622.75
2023-05-14T10:42:20.867Z,100623.56
2023-05-14T10:44:49.649Z,100616.19
2023-05-14T10:47:17.985Z,100624.88
2023-05-14T10:49:49.335Z,100627.66
2023-05-14T10:52:19.419Z,100625.50
2023-05-14T10:54:56.490Z,100610.38
2023-05-14T10:57:26.320Z,100616.75
2023-05-14T10:59:55.254Z,100619.63
2023-05-14T11:02:30.292Z,100619.63
2023-05-14T11:05:00.461Z,100613.44
2023-05-14T11:07:32.978Z,100611.69
2023-05-14T11:10:08.743Z,100616.97
2023-05-14T11:12:38.020Z,100617.97
2023-05-14T11:15:09.490Z,100619.78
2023-05-14T11:17:38.379Z,100627.38
2023-05-14T11:20:06.667Z,100624.88
2023-05-14T11:22:35.447Z,100621.13
2023-05-14T11:25:02.918Z,100621.91
2023-05-14T11:27:34.838Z,100622.00
2023-05-14T11:30:02.313Z,100618.38
2023-05-14T11:32:35.415Z,100615.97
2023-05-14T11:35:02.660Z,100611.75
2023-05-14T11:37:32.345Z,100605.78
2023-05-14T11:40:04.501Z,100614.44
2023-05-14T11:42:37.390Z,100611.34
2023-05-14T11:45:05.288Z,100607.03
2023-05-14T11:47:32.766Z,100606.84
2023-05-14T11:50:01.043Z,100605.22
2023-05-14T11:52:28.137Z,100600.28
2023-05-14T11:54:55.411Z,100590.69
2023-05-14T11:57:23.312Z,100600.34
2023-05-14T11:59:59.271Z,100592.56
2023-05-14T12:02:28.340Z,100598.31
2023-05-14T12:04:55.774Z,100607.13
2023-05-14T12:07:23.128Z,100607.94
2023-05-14T12:09:50.818Z,100604.66
2023-05-14T12:12:21.016Z,100604.66
2023-05-14T12:14:49.116Z,100598.16
2023-05-14T12:17:18.684Z,100599.84
2023-05-14T12:19:48.134Z,100590.09
2023-05-14T12:22:17.565Z,100597.34
2023-05-14T12:24:53.661Z,100597.13
2023-05-14T12:27:23.781Z,100597.75
2023-05-14T12:30:06.263Z,100602.69
2023-05-14T12:32:41.458Z,100589.53
2023-05-14T12:35:09.602Z,100595.88
2023-05-14T12:37:37.686Z,100602.47
2023-05-14T12:40:21.295Z,100597.06
2023-05-14T12:42:51.093Z,100593.91
2023-05-14T12:45:18.586Z,100592.50
2023-05-14T12:47:45.936Z,100598.84
2023-05-14T12:50:13.172Z,100601.31
2023-05-14T12:52:40.350Z,100601.06
2023-05-14T12:55:10.447Z,100596.63
2023-05-14T12:57:40.663Z,100594.59
2023-05-14T13:00:15.739Z,100589.72
2023-05-14T13:02:43.867Z,100590.19
2023-05-14T13:05:12.558Z,100587.16
2023-05-14T13:07:39.900Z,100592.53
2023-05-14T13:10:07.594Z,100591.09
2023-05-14T13:12:34.793Z,100585.22
2023-05-14T13:15:01.992Z,100593.34
2023-05-14T13:17:33.310Z,100595.56
2023-05-14T13:20:00.775Z,100595.66
2023-05-14T13:22:27.820Z,100598.50
2023-05-14T13:24:54.810Z,100597.53
2023-05-14T13:27:21.900Z,100598.31
2023-05-14T13:29:48.855Z,100596.94
2023-05-14T13:32:15.950Z,100600.59
2023-05-14T13:34:44.187Z,100597.84
2023-05-14T13:37:11.413Z,100608.75
2023-05-14T13:39:39.846Z,100607.28
2023-05-14T13:42:08.126Z,100605.38
2023-05-14T13:44:36.297Z,100607.66
2023-05-14T13:47:03.615Z,100605.00
2023-05-14T13:49:30.753Z,100613.63
2023-05-14T13:51:57.874Z,100603.38
2023-05-14T13:54:24.960Z,100606.34
2023-05-14T13:56:52.161Z,100612.66
2023-05-14T13:59:19.239Z,100608.34
2023-05-14T14:01:46.688Z,100615.16
2023-05-14T14:04:16.515Z,100614.09
2023-05-14T14:06:44.190Z,100617.81
2023-05-14T14:09:13.522Z,100617.00
2023-05-14T14:11:41.277Z,100613.91
2023-05-14T14:14:08.603Z,100623.59
2023-05-14T14:16:36.353Z,100615.75
2023-05-14T14:19:03.706Z,100608.59
2023-05-14T14:21:31.854Z,100610.88
2023-05-14T14:23:59.215Z,100616.56
2023-05-14T14:26:27.992Z,100612.09
2023-05-14T14:28:55.777Z,100607.47
2023-05-14T14:31:23.098Z,100611.38
2023-05-14T14:33:50.450Z,100607.34
2023-05-14T14:36:17.631Z,100608.16
2023-05-14T14:38:44.777Z,100607.34
2023-05-14T14:41:11.843Z,100603.03
2023-05-14T14:43:41.160Z,100604.59
2023-05-14T14:46:09.418Z,100609.06
2023-05-14T14:48:41.303Z,100608.47
2023-05-14T14:51:09.191Z,100605.25
2023-05-14T14:53:37.394Z,100605.25
2023-05-14T14:56:04.960Z,100602.97
2023-05-14T14:58:32.225Z,100613.38
2023-05-14T15:01:01.280Z,100600.22
2023-05-14T15:03:29.645Z,100611.47
2023-05-14T15:05:56.875Z,100612.84
2023-05-14T15:08:28.177Z,100609.19
2023-05-14T15:10:59.512Z,100610.25
2023-05-14T15:13:27.207Z,100615.09
2023-05-14T15:15:54.780Z,100618.31
2023-05-14T15:18:21.894Z,100608.78
2023-05-14T15:20:49.211Z,100605.22
2023-05-14T15:23:16.322Z,100603.03
2023-05-14T15:25:43.535Z,100602.56
2023-05-14T15:28:11.047Z,100604.56
2023-05-14T15:30:38.068Z,100605.94
2023-05-14T15:33:07.955Z,100605.25
2023-05-14T15:35:34.989Z,100591.31
2023-05-14T15:38:02.296Z,100604.63
2023-05-14T15:40:29.679Z,100605.97
2023-05-14T15:42:56.734Z,100599.91
2023-05-14T15:45:23.906Z,100597.97
2023-05-14T15:47:51.327Z,100602.16
2023-05-14T15:50:18.645Z,100600.13
2023-05-14T15:52:45.892Z,100599.69
2023-05-14T15:55:12.873Z,100602.69
2023-05-14T15:57:40.235Z,100597.47
2023-05-14T16:00:11.167Z,100577.84
2023-05-14T16:02:41.462Z,100597.72
2023-05-14T16:05:09.221Z,100588.66
2023-05-14T16:07:36.865Z,100595.59
2023-05-14T16:10:04.176Z,100594.81
2023-05-14T16:12:33.329Z,100594.34
2023-05-14T16:15:01.085Z,100588.28
2023-05-14T16:17:34.959Z,100596.22
2023-05-14T16:20:02.248Z,100591.59
2023-05-14T16:22:34.748Z,100594.59
2023-05-14T16:25:04.417Z,100601.88
2023-05-14T16:27:33.586Z,100604.38
2023-05-14T16:30:00.917Z,100601.59
2023-05-14T16:32:33.843Z,100610.53
2023-05-14T16:35:02.648Z,100598.97
2023-05-14T16:37:34.332Z,100614.53
2023-05-14T16:40:01.633Z,100599.19
2023-05-14T16:42:32.712Z,100603.47
2023-05-14T16:44:59.854Z,100603.47
2023-05-14T16:47:26.845Z,100601.97
2023-05-14T16:49:53.834Z,100611.88
2023-05-14T16:52:21.272Z,100613.81
2023-05-14T16:54:48.200Z,100604.22
2023-05-14T16:57:15.808Z,100621.00
2023-05-14T16:59:42.772Z,100610.59
2023-05-14T17:02:09.837Z,100618.66
2023-05-14T17:04:42.222Z,100619.16
2023-05-14T17:07:10.162Z,100619.13
2023-05-14T17:09:37.625Z,100634.44
2023-05-14T17:12:04.831Z,100630.47
2023-05-14T17:14:31.999Z,100629.47
2023-05-14T17:16:58.969Z,100642.13
2023-05-14T17:19:25.977Z,100638.97
2023-05-14T17:21:53.131Z,100640.72
2023-05-14T17:24:20.183Z,100630.84
2023-05-14T17:26:47.282Z,100642.88
2023-05-14T17:29:14.378Z,100639.88
2023-05-14T17:31:41.482Z,100645.13
2023-05-14T17:34:08.484Z,100643.72
2023-05-14T17:36:35.451Z,100646.97
2023-05-14T17:39:02.499Z,100653.78
2023-05-14T17:41:29.573Z,100640.56
2023-05-14T17:43:56.554Z,100640.19
2023-05-14T17:46:23.710Z,100651.03
2023-05-14T17:48:51.128Z,100661.56
2023-05-14T17:51:18.218Z,100653.63
2023-05-14T17:53:45.242Z,100656.03
2023-05-14T17:56:12.340Z,100658.44
2023-05-14T17:58:39.431Z,100665.13
2023-05-14T18:01:06.596Z,100667.41
2023-05-14T18:03:33.966Z,100673.28
2023-05-14T18:06:01.303Z,100673.00
2023-05-14T18:08:30.134Z,100670.84
2023-05-14T18:12:09.180Z,100667.44
2023-05-14T18:15:05.236Z,100670.38
2023-05-14T18:18:13.327Z,100675.13
2023-05-14T18:20:40.262Z,100670.72
2023-05-14T18:23:07.203Z,100675.47
2023-05-14T18:25:36.816Z,100683.50
2023-05-14T18:28:04.215Z,100674.91
2023-05-14T18:30:31.316Z,100676.88
2023-05-14T18:32:59.965Z,100679.13
2023-05-14T18:35:28.000Z,100676.09
2023-05-14T18:37:55.246Z,100680.53
2023-05-14T18:40:22.481Z,100674.19
2023-05-14T18:42:49.517Z,100682.91
2023-05-14T18:45:16.771Z,100674.59
2023-05-14T18:47:44.295Z,100687.22
2023-05-14T18:50:13.943Z,100675.47
2023-05-14T18:52:43.359Z,100685.16
2023-05-14T18:55:10.417Z,100681.69
2023-05-14T18:57:37.768Z,100678.69
2023-05-14T19:00:05.468Z,100685.88
2023-05-14T19:02:35.080Z,100680.06
2023-05-14T19:05:12.353Z,100676.91
2023-05-14T19:07:41.859Z,100681.47
2023-05-14T19:10:10.038Z,100678.47
2023-05-14T19:12:37.140Z,100684.00
2023-05-14T19:15:11.872Z,100680.66
2023-05-14T19:18:05.196Z,100690.78
2023-05-14T19:24:44.063Z,100690.94
2023-05-14T19:27:38.304Z,100694.81
2023-05-14T19:30:07.011Z,100688.50
2023-05-14T19:32:45.047Z,100687.94
2023-05-14T19:35:21.443Z,100686.56
2023-05-14T19:37:55.172Z,100692.50
2023-05-14T19:40:24.149Z,100688.50
2023-05-14T19:42:52.187Z,100691.41
2023-05-14T19:45:19.233Z,100683.38
2023-05-14T19:47:50.192Z,100690.72
2023-05-14T19:50:43.040Z,100692.34
2023-05-14T19:53:10.168Z,100691.81
2023-05-14T19:55:37.335Z,100687.69
2023-05-14T19:58:04.454Z,100684.63
2023-05-14T20:00:31.724Z,100690.88
2023-05-14T20:02:59.710Z,100685.44
2023-05-14T20:05:26.959Z,100685.75
2023-05-14T20:07:56.602Z,100690.53
2023-05-14T20:10:24.366Z,100688.16
2023-05-14T20:12:51.703Z,100690.25
2023-05-14T20:15:18.731Z,100701.13
2023-05-14T20:17:46.316Z,100692.16
2023-05-14T20:20:14.474Z,100691.44
2023-05-14T20:22:42.879Z,100688.41
2023-05-14T20:25:10.252Z,100697.50
2023-05-14T20:27:37.713Z,100698.72
2023-05-14T20:30:05.656Z,100691.53
2023-05-14T20:32:32.832Z,100697.84
2023-05-14T20:35:02.861Z,100696.63
2023-05-14T20:37:33.182Z,100696.88
2023-05-14T20:40:01.407Z,100694.78
2023-05-14T20:42:31.511Z,100695.19
2023-05-14T20:44:58.567Z,100695.44
2023-05-14T20:47:26.883Z,100688.09
2023-05-14T20:49:53.913Z,100705.75
2023-05-14T20:52:21.049Z,100700.91
2023-05-14T20:54:48.377Z,100705.59
2023-05-14T20:57:16.101Z,100696.44
2023-05-14T20:59:43.378Z,100706.34
2023-05-14T21:02:10.833Z,100702.06
2023-05-14T21:04:38.831Z,100703.25
2023-05-14T21:07:07.052Z,100703.56
2023-05-14T21:09:34.140Z,100701.31
2023-05-14T21:12:01.363Z,100696.34
2023-05-14T21:14:28.424Z,100701.84
2023-05-14T21:16:55.659Z,100700.28
2023-05-14T21:19:23.523Z,100690.88
2023-05-14T21:21:50.715Z,100699.16
2023-05-14T21:24:19.083Z,100696.78
2023-05-14T21:26:46.512Z,100703.91
2023-05-14T21:29:13.621Z,100693.00
2023-05-14T21:31:40.942Z,100694.69
2023-05-14T21:34:08.043Z,100707.03
2023-05-14T21:36:35.484Z,100701.13
2023-05-14T21:39:02.629Z,100700.41
2023-05-14T21:41:32.073Z,100705.78
2023-05-14T21:43:59.102Z,100699.00
2023-05-14T21:46:26.261Z,100697.34
2023-05-14T21:48:53.335Z,100700.09
2023-05-14T21:51:20.502Z,100704.59
2023-05-14T21:53:48.479Z,100694.25
2023-05-14T21:56:15.849Z,100698.81
2023-05-14T21:58:42.973Z,100686.91
2023-05-14T22:01:11.545Z,100697.38
2023-05-14T22:03:38.845Z,100693.13
2023-05-14T22:06:06.237Z,100697.63
2023-05-14T22:08:33.251Z,100693.38
2023-05-14T22:11:00.444Z,100693.50
2023-05-14T22:13:28.722Z,100699.78
2023-05-14T22:16:05.296Z,100697.28
2023-05-14T22:18:39.599Z,100691.47
2023-05-14T22:21:06.959Z,100691.59
2023-05-14T22:23:33.950Z,100687.56
2023-05-14T22:26:01.115Z,100683.41
2023-05-14T22:28:28.135Z,100691.41
2023-05-14T22:30:56.641Z,100693.28
2023-05-14T22:33:23.932Z,100696.03
2023-05-14T22:35:51.463Z,100693.53
2023-05-14T22:38:20.065Z,100694.75
2023-05-14T22:40:47.261Z,100692.38
2023-05-14T22:43:14.197Z,100700.34
2023-05-14T22:45:41.447Z,100695.38
2023-05-14T22:48:09.220Z,100702.50
2023-05-14T22:50:36.091Z,100700.03
2023-05-14T22:53:03.036Z,100702.75
2023-05-14T22:55:30.379Z,100694.47
2023-05-14T22:57:57.399Z,100698.00
2023-05-14T23:00:24.396Z,100703.50
2023-05-14T23:02:51.981Z,100701.94
2023-05-14T23:05:19.675Z,100704.53
2023-05-14T23:07:46.755Z,100703.97
2023-05-14T23:10:13.780Z,100698.16
2023-05-14T23:12:46.168Z,100700.03
2023-05-14T23:15:15.091Z,100701.25
2023-05-14T23:17:42.516Z,100697.09
2023-05-14T23:20:12.868Z,100697.34
2023-05-14T23:22:40.920Z,100700.81
2023-05-14T23:25:08.386Z,100705.16
2023-05-14T23:27:35.742Z,100711.59
2023-05-14T23:30:07.317Z,100707.56
2023-05-14T23:32:34.305Z,100708.38
2023-05-14T23:35:01.586Z,100714.59
2023-05-14T23:37:29.165Z,100709.47
2023-05-14T23:39:56.222Z,100707.81
2023-05-14T23:42:23.386Z,100713.97
2023-05-14T23:44:50.537Z,100712.56
2023-05-14T23:47:17.746Z,100708.97
2023-05-14T23:49:44.802Z,100715.19
2023-05-14T23:52:12.783Z,100711.84
2023-05-14T23:54:39.893Z,100713.75
2023-05-14T23:57:06.955Z,100715.53
2023-05-14T23:59:34.002Z,100714.72
